createdAt,value
2019-01-05T00:02:41.941Z,1.4
2019-01-05T00:07:41.973Z,1.4
2019-01-05T00:12:41.952Z,1.2
2019-01-05T00:17:41.985Z,1.3
2019-01-05T00:22:41.928Z,1.3
2019-01-05T00:27:41.989Z,1.3
2019-01-05T00:32:41.991Z,1.4
2019-01-05T00:37:41.984Z,1.3
2019-01-05T00:42:41.965Z,1.1
2019-01-05T00:47:42.010Z,1.3
2019-01-05T00:52:41.994Z,1.3
2019-01-05T00:57:41.961Z,1.3
2019-01-05T01:02:41.998Z,1.3
2019-01-05T01:07:42.008Z,1.2
2019-01-05T01:12:41.994Z,1.2
2019-01-05T01:17:42.004Z,1.1
2019-01-05T01:22:41.998Z,1.2
2019-01-05T01:27:42.007Z,1.2
2019-01-05T01:32:42.003Z,1.3
2019-01-05T01:37:42.007Z,1.4
2019-01-05T01:42:41.962Z,1.4
2019-01-05T01:47:41.967Z,1.3
2019-01-05T01:52:42.002Z,1.3
2019-01-05T01:57:42.008Z,1.1
2019-01-05T02:02:42.022Z,1.2
2019-01-05T02:07:42.036Z,1.1
2019-01-05T02:12:42.028Z,1.1
2019-01-05T02:17:42.025Z,1.2
2019-01-05T02:22:42.032Z,1.1
2019-01-05T02:27:42.045Z,0.9
2019-01-05T02:32:42.002Z,1
2019-01-05T02:37:42.049Z,0.9
2019-01-05T02:42:42.063Z,1
2019-01-05T02:47:42.043Z,1.6
2019-01-05T02:52:42.074Z,1.4
2019-01-05T02:57:42.055Z,1.4
2019-01-05T03:02:42.066Z,1.5
2019-01-05T03:07:42.077Z,1.3
2019-01-05T03:12:42.084Z,1.2
2019-01-05T03:17:42.029Z,1.2
2019-01-05T03:22:42.037Z,1.4
2019-01-05T03:27:42.078Z,1.4
2019-01-05T03:32:42.085Z,1.4
2019-01-05T03:37:42.068Z,1.5
2019-01-05T03:42:42.081Z,1.5
2019-01-05T03:47:42.085Z,1.3
2019-01-05T03:52:42.048Z,1.3
2019-01-05T03:57:42.085Z,1.5
2019-01-05T04:02:42.086Z,1.3
2019-01-05T04:07:42.125Z,1.2
2019-01-05T04:12:42.056Z,1.5
2019-01-05T04:17:42.096Z,1.5
2019-01-05T04:22:42.090Z,1.7
2019-01-05T04:27:42.086Z,1.5
2019-01-05T04:32:42.106Z,1.5
2019-01-05T04:37:42.103Z,1.3
2019-01-05T04:42:42.123Z,1.4
2019-01-05T04:47:42.124Z,1.3
2019-01-05T04:52:42.129Z,1.1
2019-01-05T04:57:42.116Z,1.6
2019-01-05T05:02:42.148Z,1.3
2019-01-05T05:07:42.144Z,1.3
2019-01-05T05:12:42.128Z,1.3
2019-01-05T05:17:42.113Z,1.3
2019-01-05T05:22:42.142Z,1.3
2019-01-05T05:27:42.149Z,1.3
2019-01-05T05:32:42.149Z,1.3
2019-01-05T05:37:42.140Z,1.2
2019-01-05T05:42:42.151Z,1.3
2019-01-05T05:47:42.140Z,1.3
2019-01-05T05:52:42.146Z,1.4
2019-01-05T05:57:42.268Z,1.4
2019-01-05T06:02:42.123Z,1.4
2019-01-05T06:07:42.172Z,1.4
2019-01-05T06:12:42.118Z,1.4
2019-01-05T06:17:42.151Z,1.4
2019-01-05T06:22:42.155Z,1.4
2019-01-05T06:27:42.166Z,1.4
2019-01-05T06:32:42.169Z,1.5
2019-01-05T06:37:42.155Z,1.4
2019-01-05T06:42:42.157Z,1.5
2019-01-05T06:47:42.185Z,1.6
2019-01-05T06:52:42.181Z,1.5
2019-01-05T06:57:42.178Z,1.6
2019-01-05T07:02:42.196Z,1.6
2019-01-05T07:07:42.192Z,1.6
2019-01-05T07:12:42.184Z,1.7
2019-01-05T07:17:42.204Z,1.7
2019-01-05T07:22:42.184Z,1.6
2019-01-05T07:27:42.211Z,1.7
2019-01-05T07:32:42.199Z,1.8
2019-01-05T07:37:42.223Z,1.8
2019-01-05T07:42:42.205Z,1.8
2019-01-05T07:47:42.211Z,1.8
2019-01-05T07:52:42.233Z,1.8
2019-01-05T07:57:42.218Z,1.7
2019-01-05T08:02:42.226Z,1.8
2019-01-05T08:07:42.222Z,1.8
2019-01-05T08:12:42.229Z,1.8
2019-01-05T08:17:42.231Z,1.7
2019-01-05T08:22:42.242Z,1.8
2019-01-05T08:27:42.243Z,1.8
2019-01-05T08:32:42.250Z,1.8
2019-01-05T08:37:42.239Z,1.8
2019-01-05T08:42:42.244Z,1.8
2019-01-05T08:47:42.265Z,1.9
2019-01-05T08:52:42.238Z,1.8
2019-01-05T08:57:42.269Z,1.9
2019-01-05T09:02:42.306Z,1.9
2019-01-05T09:07:42.242Z,1.9
2019-01-05T09:12:42.257Z,1.9
2019-01-05T09:17:42.299Z,2
2019-01-05T09:22:42.284Z,1.9
2019-01-05T09:27:42.222Z,2
2019-01-05T09:32:42.298Z,2
2019-01-05T09:37:42.277Z,2
2019-01-05T09:42:42.275Z,2
2019-01-05T09:47:42.266Z,2
2019-01-05T09:52:42.281Z,2.1
2019-01-05T09:57:42.314Z,2.1
2019-01-05T10:02:42.247Z,2
2019-01-05T10:07:42.274Z,2.1
2019-01-05T10:12:42.258Z,2.2
2019-01-05T10:17:42.302Z,2.2
2019-01-05T10:22:42.302Z,2.4
2019-01-05T10:27:42.304Z,2.4
2019-01-05T10:32:42.301Z,2.4
2019-01-05T10:37:42.302Z,2.5
2019-01-05T10:42:42.295Z,2.3
2019-01-05T10:47:42.295Z,2.4
2019-01-05T10:52:42.317Z,2.4
2019-01-05T10:57:42.321Z,2.4
2019-01-05T11:02:42.336Z,2.3
2019-01-05T11:07:42.312Z,2.4
2019-01-05T11:12:42.345Z,2.4
2019-01-05T11:17:42.337Z,2.5
2019-01-05T11:22:42.326Z,2.5
2019-01-05T11:27:42.322Z,2.5
2019-01-05T11:32:42.337Z,2.4
2019-01-05T11:37:42.348Z,2.4
2019-01-05T11:42:42.284Z,2.4
2019-01-05T11:47:43.376Z,2.3
2019-01-05T11:52:42.295Z,2.4
2019-01-05T11:57:42.360Z,2.3
2019-01-05T12:02:42.304Z,2.2
2019-01-05T12:07:42.407Z,2.2
2019-01-05T12:12:42.407Z,2.2
2019-01-05T12:17:42.384Z,2.2
2019-01-05T12:22:42.384Z,2.2
2019-01-05T12:27:42.384Z,2.2
2019-01-05T12:32:42.372Z,2.2
2019-01-05T12:37:42.402Z,2.2
2019-01-05T12:42:42.363Z,2.3
2019-01-05T12:47:42.521Z,2.3
2019-01-05T12:52:42.342Z,2.3
2019-01-05T12:57:42.390Z,2.3
2019-01-05T13:02:42.323Z,2.3
2019-01-05T13:07:42.382Z,2.3
2019-01-05T13:12:42.413Z,2.3
2019-01-05T13:17:42.401Z,2.3
2019-01-05T13:22:42.371Z,2.3
2019-01-05T13:27:42.636Z,2.3
2019-01-05T13:32:42.444Z,2.3
2019-01-05T13:37:42.392Z,2.3
2019-01-05T13:42:42.432Z,2.3
2019-01-05T13:47:42.367Z,2.4
2019-01-05T13:52:42.434Z,2.3
2019-01-05T13:57:42.446Z,2.3
2019-01-05T14:02:43.669Z,2.3
2019-01-05T14:07:42.406Z,2.3
2019-01-05T14:12:42.436Z,2.3
2019-01-05T14:17:42.427Z,2.3
2019-01-05T14:22:42.436Z,2.2
2019-01-05T14:27:42.478Z,2.3
2019-01-05T14:32:44.936Z,2.3
2019-01-05T14:37:42.451Z,2.2
2019-01-05T14:42:42.446Z,2.2
2019-01-05T14:47:42.461Z,2.2
2019-01-05T14:52:42.460Z,2.2
2019-01-05T14:57:42.437Z,2.3
2019-01-05T15:02:42.471Z,2.3
2019-01-05T15:07:42.492Z,2.4
2019-01-05T15:12:43.310Z,2.4
2019-01-05T15:17:42.404Z,2.4
2019-01-05T15:22:42.458Z,2.4
2019-01-05T15:27:42.446Z,2.4
2019-01-05T15:32:42.442Z,2.4
2019-01-05T15:37:42.444Z,2.4
2019-01-05T15:42:42.449Z,2.3
2019-01-05T15:47:42.439Z,2.4
2019-01-05T15:52:42.454Z,2.4
2019-01-05T15:57:42.479Z,2.4
2019-01-05T16:02:42.474Z,2.4
2019-01-05T16:07:45.478Z,2.4
2019-01-05T16:12:42.478Z,2.4
2019-01-05T16:17:43.151Z,2.4
2019-01-05T16:22:45.263Z,2.4
2019-01-05T16:27:42.479Z,2.4
2019-01-05T16:32:42.508Z,2.4
2019-01-05T16:37:42.507Z,2.4
2019-01-05T16:42:42.498Z,2.4
2019-01-05T16:47:42.498Z,2.4
2019-01-05T16:52:42.500Z,2.4
2019-01-05T16:57:43.075Z,2.5
2019-01-05T17:02:42.591Z,2.4
2019-01-05T17:07:42.561Z,2.5
2019-01-05T17:12:43.543Z,2.5
2019-01-05T17:17:42.477Z,2.5
2019-01-05T17:22:42.511Z,2.6
2019-01-05T17:27:42.522Z,2.6
2019-01-05T17:32:42.557Z,2.6
2019-01-05T17:37:42.675Z,2.6
2019-01-05T17:42:42.519Z,2.6
2019-01-05T17:47:42.530Z,2.6
2019-01-05T17:52:42.545Z,2.6
2019-01-05T17:57:42.544Z,2.6
2019-01-05T18:02:42.539Z,2.7
2019-01-05T18:07:42.558Z,2.6
2019-01-05T18:12:42.551Z,2.6
2019-01-05T18:17:42.565Z,2.6
2019-01-05T18:22:42.603Z,2.7
2019-01-05T18:27:48.242Z,2.6
2019-01-05T18:32:48.245Z,2.6
2019-01-05T18:37:48.314Z,2.6
2019-01-05T18:42:48.248Z,2.7
2019-01-05T18:47:48.242Z,2.7
2019-01-05T18:52:48.276Z,2.6
2019-01-05T18:57:48.274Z,2.6
2019-01-05T19:02:48.395Z,2.6
2019-01-05T19:07:48.368Z,2.5
2019-01-05T19:12:48.338Z,2.6
2019-01-05T19:17:48.273Z,2.6
2019-01-05T19:22:48.745Z,2.6
2019-01-05T19:27:48.698Z,2.6
2019-01-05T19:32:48.270Z,2.6
2019-01-05T19:37:48.310Z,2.7
2019-01-05T19:42:48.285Z,2.7
2019-01-05T19:47:48.365Z,2.7
2019-01-05T19:52:48.283Z,2.7
2019-01-05T19:57:48.510Z,2.7
2019-01-05T20:02:48.288Z,2.8
2019-01-05T20:07:49.047Z,2.8
2019-01-05T20:12:48.861Z,2.8
2019-01-05T20:17:48.292Z,2.7
2019-01-05T20:22:48.312Z,2.7
2019-01-05T20:27:48.293Z,2.7
2019-01-05T20:32:48.321Z,2.7
2019-01-05T20:37:48.315Z,2.7
2019-01-05T20:42:48.320Z,2.8
2019-01-05T20:47:48.335Z,2.8
2019-01-05T20:52:48.422Z,2.7
2019-01-05T20:57:48.460Z,2.7
2019-01-05T21:02:48.289Z,2.7
2019-01-05T21:07:48.337Z,2.8
2019-01-05T21:12:48.469Z,2.7
2019-01-05T21:17:48.340Z,2.7
2019-01-05T21:22:48.388Z,2.7
2019-01-05T21:27:48.540Z,2.7
2019-01-05T21:32:48.587Z,2.7
2019-01-05T21:37:48.740Z,2.8
2019-01-05T21:42:48.375Z,2.8
2019-01-05T21:47:48.389Z,2.7
2019-01-05T21:52:48.837Z,2.7
2019-01-05T21:57:48.875Z,2.7
2019-01-05T22:02:48.813Z,2.7
2019-01-05T22:07:48.356Z,2.7
2019-01-05T22:12:48.865Z,2.7
2019-01-05T22:17:48.812Z,2.8
2019-01-05T22:22:48.882Z,2.8
2019-01-05T22:27:48.993Z,2.7
2019-01-05T22:32:48.403Z,2.8
2019-01-05T22:37:48.397Z,2.8
2019-01-05T22:42:48.787Z,2.8
2019-01-05T22:47:48.771Z,2.8
2019-01-05T22:52:48.434Z,2.9
2019-01-05T22:57:48.889Z,2.8
2019-01-05T23:02:48.361Z,2.8
2019-01-05T23:07:48.371Z,2.8
2019-01-05T23:12:48.390Z,2.8
2019-01-05T23:17:48.381Z,2.8
2019-01-05T23:22:48.384Z,2.8
2019-01-05T23:27:48.811Z,2.8
2019-01-05T23:32:48.396Z,2.8
2019-01-05T23:37:48.389Z,2.8
2019-01-05T23:42:48.468Z,2.8
2019-01-05T23:47:48.424Z,2.8
2019-01-05T23:52:48.366Z,2.8
2019-01-05T23:57:48.409Z,2.8
